createdAt,value
2023-02-13T00:00:24.801Z,100583.72
2023-02-13T00:02:51.461Z,100577.72
2023-02-13T00:05:25.078Z,100572.59
2023-02-13T00:07:51.619Z,100583.63
2023-02-13T00:10:18.057Z,100571.66
2023-02-13T00:12:44.507Z,100570.75
2023-02-13T00:15:11.007Z,100567.94
2023-02-13T00:17:39.818Z,100560.03
2023-02-13T00:20:07.079Z,100562.91
2023-02-13T00:22:39.445Z,100561.97
2023-02-13T00:25:06.901Z,100563.66
2023-02-13T00:27:33.792Z,100566.91
2023-02-13T00:30:02.849Z,100569.53
2023-02-13T00:32:29.336Z,100567.78
2023-02-13T00:34:56.544Z,100568.38
2023-02-13T00:37:23.189Z,100571.94
2023-02-13T00:39:49.632Z,100569.41
2023-02-13T00:42:16.119Z,100573.00
2023-02-13T00:44:42.617Z,100567.09
2023-02-13T00:47:09.780Z,100564.25
2023-02-13T00:49:36.273Z,100570.25
2023-02-13T00:52:06.176Z,100576.13
2023-02-13T00:54:32.636Z,100573.59
2023-02-13T00:56:59.095Z,100579.59
2023-02-13T00:59:25.604Z,100576.66
2023-02-13T01:01:52.068Z,100580.28
2023-02-13T01:04:25.222Z,100573.91
2023-02-13T01:06:51.736Z,100578.22
2023-02-13T01:09:18.178Z,100580.75
2023-02-13T01:11:44.670Z,100584.19
2023-02-13T01:14:11.114Z,100581.47
2023-02-13T01:16:37.781Z,100575.47
2023-02-13T01:19:04.851Z,100581.75
2023-02-13T01:21:31.369Z,100578.22
2023-02-13T01:23:57.804Z,100583.47
2023-02-13T01:26:25.237Z,100580.78
2023-02-13T01:28:54.536Z,100575.47
2023-02-13T01:31:24.278Z,100577.19
2023-02-13T01:33:51.703Z,100586.69
2023-02-13T01:36:18.179Z,100581.38
2023-02-13T01:38:46.956Z,100577.09
2023-02-13T01:41:15.475Z,100571.78
2023-02-13T01:44:02.529Z,100579.50
2023-02-13T01:46:44.039Z,100575.16
2023-02-13T01:49:13.510Z,100577.91
2023-02-13T01:51:40.718Z,100572.63
2023-02-13T01:54:31.137Z,100578.56
2023-02-13T01:57:05.234Z,100578.53
2023-02-13T01:59:43.349Z,100578.41
2023-02-13T02:02:10.047Z,100579.31
2023-02-13T02:04:40.080Z,100583.59
2023-02-13T02:07:20.041Z,100579.19
2023-02-13T02:09:47.224Z,100578.19
2023-02-13T02:12:25.014Z,100572.63
2023-02-13T02:14:54.268Z,100577.84
2023-02-13T02:17:24.137Z,100571.59
2023-02-13T02:20:24.265Z,100568.06
2023-02-13T02:23:10.164Z,100567.84
2023-02-13T02:26:07.644Z,100566.97
2023-02-13T02:29:05.405Z,100575.53
2023-02-13T02:31:54.672Z,100569.34
2023-02-13T02:34:39.958Z,100578.00
2023-02-13T02:37:26.362Z,100571.16
2023-02-13T02:40:23.662Z,100571.75
2023-02-13T02:43:20.518Z,100562.22
2023-02-13T02:45:56.839Z,100566.66
2023-02-13T02:48:54.029Z,100563.06
2023-02-13T02:51:40.720Z,100551.78
2023-02-13T02:54:36.501Z,100546.72
2023-02-13T02:57:13.941Z,100561.47
2023-02-13T03:00:00.575Z,100558.13
2023-02-13T03:02:48.659Z,100553.69
2023-02-13T03:05:39.738Z,100550.94
2023-02-13T03:08:07.166Z,100551.69
2023-02-13T03:10:55.676Z,100548.28
2023-02-13T03:13:40.963Z,100549.31
2023-02-13T03:16:34.603Z,100553.94
2023-02-13T03:19:19.772Z,100547.72
2023-02-13T03:22:15.386Z,100552.28
2023-02-13T03:24:53.906Z,100553.06
2023-02-13T03:27:52.914Z,100547.78
2023-02-13T03:30:40.595Z,100554.56
2023-02-13T03:33:19.601Z,100556.22
2023-02-13T03:36:07.915Z,100559.03
2023-02-13T03:38:52.211Z,100565.03
2023-02-13T03:41:23.720Z,100564.09
2023-02-13T03:43:59.027Z,100563.06
2023-02-13T03:46:29.681Z,100554.00
2023-02-13T03:49:16.458Z,100556.50
2023-02-13T03:52:04.249Z,100553.91
2023-02-13T03:55:06.233Z,100566.66
2023-02-13T03:57:53.355Z,100546.75
2023-02-13T04:00:21.515Z,100553.63
2023-02-13T04:02:57.509Z,100561.53
2023-02-13T04:05:27.916Z,100552.00
2023-02-13T04:07:54.433Z,100551.16
2023-02-13T04:10:23.807Z,100556.28
2023-02-13T04:13:02.650Z,100553.81
2023-02-13T04:15:37.362Z,100545.97
2023-02-13T04:18:27.400Z,100549.63
2023-02-13T04:20:53.972Z,100558.59
2023-02-13T04:23:20.578Z,100549.97
2023-02-13T04:25:50.529Z,100561.25
2023-02-13T04:28:17.094Z,100555.28
2023-02-13T04:30:46.508Z,100550.00
2023-02-13T04:33:13.036Z,100562.25
2023-02-13T04:35:41.852Z,100558.84
2023-02-13T04:38:08.429Z,100560.28
2023-02-13T04:40:37.429Z,100555.88
2023-02-13T04:43:03.927Z,100562.13
2023-02-13T04:45:30.507Z,100554.38
2023-02-13T04:47:57.792Z,100553.63
2023-02-13T04:50:25.130Z,100550.28
2023-02-13T04:53:05.558Z,100548.47
2023-02-13T04:55:32.046Z,100542.88
2023-02-13T04:58:08.543Z,100552.56
2023-02-13T05:00:35.024Z,100555.50
2023-02-13T05:03:11.482Z,100546.44
2023-02-13T05:05:38.531Z,100544.53
2023-02-13T05:08:05.746Z,100554.28
2023-02-13T05:10:32.195Z,100549.19
2023-02-13T05:13:01.040Z,100555.16
2023-02-13T05:15:27.910Z,100555.06
2023-02-13T05:17:54.443Z,100559.53
2023-02-13T05:20:21.127Z,100547.38
2023-02-13T05:23:08.607Z,100555.81
2023-02-13T05:25:36.543Z,100559.31
2023-02-13T05:28:03.586Z,100549.50
2023-02-13T05:30:30.245Z,100552.09
2023-02-13T05:32:57.001Z,100549.63
2023-02-13T05:35:26.042Z,100550.53
2023-02-13T05:37:52.594Z,100543.41
2023-02-13T05:40:19.151Z,100541.66
2023-02-13T05:42:45.602Z,100546.91
2023-02-13T05:45:12.067Z,100538.22
2023-02-13T05:47:38.549Z,100547.78
2023-02-13T05:50:05.558Z,100549.50
2023-02-13T05:52:32.063Z,100547.19
2023-02-13T05:54:59.640Z,100550.56
2023-02-13T05:57:26.144Z,100553.41
2023-02-13T05:59:55.010Z,100548.06
2023-02-13T06:02:21.522Z,100557.50
2023-02-13T06:04:47.999Z,100560.28
2023-02-13T06:07:14.456Z,100556.56
2023-02-13T06:09:41.075Z,100555.66
2023-02-13T06:12:07.858Z,100557.50
2023-02-13T06:14:34.367Z,100556.69
2023-02-13T06:17:01.457Z,100561.97
2023-02-13T06:19:27.912Z,100562.69
2023-02-13T06:21:56.866Z,100560.03
2023-02-13T06:24:23.435Z,100559.91
2023-02-13T06:26:49.980Z,100560.69
2023-02-13T06:29:16.505Z,100559.81
2023-02-13T06:31:42.996Z,100572.84
2023-02-13T06:34:09.609Z,100575.31
2023-02-13T06:36:43.393Z,100575.41
2023-02-13T06:39:11.133Z,100573.88
2023-02-13T06:41:37.823Z,100581.59
2023-02-13T06:44:14.163Z,100574.31
2023-02-13T06:46:40.727Z,100584.28
2023-02-13T06:49:07.307Z,100579.78
2023-02-13T06:51:33.888Z,100579.72
2023-02-13T06:54:00.438Z,100586.16
2023-02-13T06:56:26.891Z,100578.34
2023-02-13T06:58:53.464Z,100585.25
2023-02-13T07:01:20.072Z,100588.81
2023-02-13T07:03:51.652Z,100586.00
2023-02-13T07:06:19.565Z,100590.56
2023-02-13T07:08:46.641Z,100594.13
2023-02-13T07:11:20.118Z,100590.41
2023-02-13T07:13:46.614Z,100594.25
2023-02-13T07:16:13.364Z,100590.06
2023-02-13T07:18:39.926Z,100596.25
2023-02-13T07:21:07.444Z,100591.00
2023-02-13T07:23:36.572Z,100590.16
2023-02-13T07:26:03.730Z,100589.31
2023-02-13T07:28:30.880Z,100591.09
2023-02-13T07:30:57.875Z,100587.69
2023-02-13T07:33:24.697Z,100592.25
2023-02-13T07:35:52.457Z,100585.50
2023-02-13T07:38:19.484Z,100589.84
2023-02-13T07:40:46.243Z,100593.47
2023-02-13T07:43:13.330Z,100593.59
2023-02-13T07:45:39.916Z,100587.59
2023-02-13T07:48:06.544Z,100593.13
2023-02-13T07:50:33.237Z,100591.59
2023-02-13T07:53:02.139Z,100593.44
2023-02-13T07:55:30.149Z,100595.22
2023-02-13T07:57:56.934Z,100588.94
2023-02-13T08:00:27.814Z,100588.25
2023-02-13T08:02:54.343Z,100586.09
2023-02-13T08:05:20.913Z,100598.97
2023-02-13T08:07:47.395Z,100592.22
2023-02-13T08:10:32.844Z,100582.69
2023-02-13T08:12:59.931Z,100589.09
2023-02-13T08:15:26.466Z,100591.91
2023-02-13T08:17:53.342Z,100594.59
2023-02-13T08:20:20.101Z,100597.44
2023-02-13T08:22:46.646Z,100596.72
2023-02-13T08:25:16.143Z,100600.97
2023-02-13T08:27:42.786Z,100594.25
2023-02-13T08:30:09.954Z,100599.50
2023-02-13T08:32:52.895Z,100598.03
2023-02-13T08:35:20.317Z,100597.22
2023-02-13T08:37:47.660Z,100598.69
2023-02-13T08:40:14.389Z,100592.63
2023-02-13T08:42:40.842Z,100598.88
2023-02-13T08:45:07.612Z,100602.53
2023-02-13T08:47:43.559Z,100600.97
2023-02-13T08:50:10.680Z,100611.13
2023-02-13T08:52:37.176Z,100604.28
2023-02-13T08:55:03.910Z,100608.16
2023-02-13T08:57:31.297Z,100612.66
2023-02-13T08:59:59.985Z,100613.00
2023-02-13T09:02:26.541Z,100612.94
2023-02-13T09:04:53.165Z,100612.06
2023-02-13T09:07:19.648Z,100603.09
2023-02-13T09:09:46.154Z,100599.72
2023-02-13T09:12:13.554Z,100611.94
2023-02-13T09:14:40.226Z,100606.13
2023-02-13T09:17:11.948Z,100600.34
2023-02-13T09:19:38.766Z,100595.22
2023-02-13T09:22:05.430Z,100604.16
2023-02-13T09:24:32.058Z,100604.34
2023-02-13T09:26:58.641Z,100600.56
2023-02-13T09:29:32.091Z,100605.31
2023-02-13T09:31:58.788Z,100603.66
2023-02-13T09:34:25.778Z,100599.88
2023-02-13T09:36:53.704Z,100603.69
2023-02-13T09:39:20.240Z,100606.47
2023-02-13T09:41:59.811Z,100612.59
2023-02-13T09:44:35.618Z,100617.41
2023-02-13T09:47:14.040Z,100615.53
2023-02-13T09:49:46.881Z,100618.31
2023-02-13T09:52:13.367Z,100626.25
2023-02-13T09:54:39.847Z,100628.88
2023-02-13T09:57:40.645Z,100626.44
2023-02-13T10:00:24.783Z,100634.84
2023-02-13T10:03:16.825Z,100620.19
2023-02-13T10:05:48.176Z,100627.59
2023-02-13T10:08:27.668Z,100624.72
2023-02-13T10:11:06.741Z,100619.84
2023-02-13T10:14:01.317Z,100629.53
2023-02-13T10:16:35.139Z,100617.50
2023-02-13T10:19:18.857Z,100630.09
2023-02-13T10:21:55.359Z,100619.34
2023-02-13T10:24:57.962Z,100616.47
2023-02-13T10:27:25.664Z,100612.72
2023-02-13T10:30:07.090Z,100616.31
2023-02-13T10:33:18.373Z,100608.66
2023-02-13T10:35:59.063Z,100608.78
2023-02-13T10:38:32.870Z,100608.75
2023-02-13T10:41:22.234Z,100597.00
2023-02-13T10:44:36.462Z,100606.19
2023-02-13T10:47:30.400Z,100600.34
2023-02-13T10:50:34.261Z,100600.16
2023-02-13T10:53:15.338Z,100597.91
2023-02-13T10:56:18.844Z,100597.41
2023-02-13T10:58:45.196Z,100594.03
2023-02-13T11:01:39.185Z,100582.97
2023-02-13T11:04:07.720Z,100583.25
2023-02-13T11:06:45.456Z,100586.09
2023-02-13T11:09:13.644Z,100584.19
2023-02-13T11:11:44.012Z,100576.53
2023-02-13T11:14:19.309Z,100578.53
2023-02-13T11:16:58.306Z,100570.94
2023-02-13T11:19:51.608Z,100566.13
2023-02-13T11:22:32.808Z,100566.44
2023-02-13T11:25:20.078Z,100560.72
2023-02-13T11:27:49.428Z,100561.38
2023-02-13T11:30:33.502Z,100550.09
2023-02-13T11:33:02.936Z,100549.13
2023-02-13T11:35:35.586Z,100541.72
2023-02-13T11:38:13.454Z,100546.31
2023-02-13T11:40:42.400Z,100542.13
2023-02-13T11:43:37.467Z,100538.03
2023-02-13T11:46:18.471Z,100536.53
2023-02-13T11:48:57.228Z,100532.19
2023-02-13T11:51:44.002Z,100540.06
2023-02-13T11:54:58.947Z,100535.59
2023-02-13T11:57:34.816Z,100541.72
2023-02-13T12:00:30.533Z,100540.06
2023-02-13T12:02:57.202Z,100535.25
2023-02-13T12:05:28.672Z,100529.13
2023-02-13T12:08:01.890Z,100538.00
2023-02-13T12:10:31.938Z,100526.72
2023-02-13T12:13:07.249Z,100527.50
2023-02-13T12:15:36.444Z,100526.53
2023-02-13T12:18:08.884Z,100513.56
2023-02-13T12:20:52.553Z,100516.97
2023-02-13T12:23:48.944Z,100515.50
2023-02-13T12:26:37.756Z,100515.50
2023-02-13T12:29:10.122Z,100512.03
2023-02-13T12:31:45.249Z,100510.00
2023-02-13T12:34:50.744Z,100504.00
2023-02-13T12:37:38.180Z,100502.91
2023-02-13T12:40:31.712Z,100502.75
2023-02-13T12:43:13.744Z,100495.91
2023-02-13T12:45:50.386Z,100480.13
2023-02-13T12:48:46.000Z,100486.25
2023-02-13T12:51:27.639Z,100487.28
2023-02-13T12:54:35.830Z,100486.97
2023-02-13T12:57:07.464Z,100483.69
2023-02-13T13:00:14.595Z,100480.38
2023-02-13T13:03:18.618Z,100482.00
2023-02-13T13:06:11.473Z,100486.47
2023-02-13T13:08:49.503Z,100483.03
2023-02-13T13:11:42.024Z,100484.81
2023-02-13T13:14:19.726Z,100474.22
2023-02-13T13:17:10.040Z,100469.75
2023-02-13T13:20:18.202Z,100473.19
2023-02-13T13:22:59.172Z,100457.25
2023-02-13T13:25:40.631Z,100459.78
2023-02-13T13:28:18.482Z,100462.47
2023-02-13T13:30:46.771Z,100454.50
2023-02-13T13:33:24.503Z,100452.91
2023-02-13T13:36:14.800Z,100448.53
2023-02-13T13:39:07.226Z,100450.13
2023-02-13T13:41:49.946Z,100447.38
2023-02-13T13:44:47.868Z,100450.13
2023-02-13T13:47:43.928Z,100442.13
2023-02-13T13:50:23.766Z,100438.44
2023-02-13T13:53:10.088Z,100441.03
2023-02-13T13:56:18.294Z,100445.19
2023-02-13T13:58:46.763Z,100441.47
2023-02-13T14:01:29.732Z,100437.94
2023-02-13T14:04:24.099Z,100437.03
2023-02-13T14:06:50.481Z,100438.00
2023-02-13T14:09:38.459Z,100442.47
2023-02-13T14:12:30.040Z,100431.00
2023-02-13T14:14:58.612Z,100425.69
2023-02-13T14:17:46.371Z,100425.75
2023-02-13T14:20:27.031Z,100427.41
2023-02-13T14:22:53.959Z,100421.19
2023-02-13T14:25:34.976Z,100417.59
2023-02-13T14:28:04.453Z,100414.13
2023-02-13T14:30:40.552Z,100424.53
2023-02-13T14:33:32.203Z,100415.56
2023-02-13T14:36:08.745Z,100419.84
2023-02-13T14:38:36.742Z,100414.59
2023-02-13T14:41:04.220Z,100414.44
2023-02-13T14:43:37.119Z,100418.72
2023-02-13T14:46:24.691Z,100419.63
2023-02-13T14:49:17.368Z,100416.78
2023-02-13T14:51:53.145Z,100407.94
2023-02-13T14:54:38.512Z,100413.22
2023-02-13T14:57:10.373Z,100404.44
2023-02-13T14:59:43.114Z,100399.13
2023-02-13T15:02:15.086Z,100402.50
2023-02-13T15:04:47.142Z,100395.53
2023-02-13T15:07:26.580Z,100394.59
2023-02-13T15:10:07.112Z,100393.72
2023-02-13T15:12:36.706Z,100388.38
2023-02-13T15:15:23.585Z,100392.78
2023-02-13T15:17:50.836Z,100388.28
2023-02-13T15:20:25.135Z,100389.00
2023-02-13T15:22:52.366Z,100397.63
2023-02-13T15:25:36.152Z,100394.03
2023-02-13T15:28:05.178Z,100391.44
2023-02-13T15:30:38.523Z,100401.00
2023-02-13T15:33:18.635Z,100390.44
2023-02-13T15:35:45.851Z,100392.06
2023-02-13T15:38:26.815Z,100394.63
2023-02-13T15:41:06.258Z,100387.53
2023-02-13T15:43:43.711Z,100396.19
2023-02-13T15:46:25.895Z,100386.50
2023-02-13T15:48:54.223Z,100390.75
2023-02-13T15:51:24.416Z,100386.31
2023-02-13T15:54:03.145Z,100394.13
2023-02-13T15:56:30.960Z,100390.56
2023-02-13T15:59:00.139Z,100393.75
2023-02-13T16:01:27.036Z,100389.22
2023-02-13T16:04:06.704Z,100397.09
2023-02-13T16:06:33.861Z,100392.56
2023-02-13T16:09:01.402Z,100395.84
2023-02-13T16:11:40.988Z,100393.09
2023-02-13T16:14:20.830Z,100390.22
2023-02-13T16:16:49.717Z,100387.63
2023-02-13T16:19:39.101Z,100389.13
2023-02-13T16:22:21.716Z,100384.63
2023-02-13T16:24:51.959Z,100385.22
2023-02-13T16:27:21.550Z,100385.53
2023-02-13T16:29:58.673Z,100386.03
2023-02-13T16:32:34.522Z,100385.56
2023-02-13T16:35:22.801Z,100392.16
2023-02-13T16:37:52.453Z,100386.56
2023-02-13T16:40:31.238Z,100394.13
2023-02-13T16:43:34.670Z,100394.75
2023-02-13T16:46:29.471Z,100405.75
2023-02-13T16:49:01.905Z,100400.50
2023-02-13T16:51:48.141Z,100399.38
2023-02-13T16:54:30.754Z,100406.03
2023-02-13T16:57:01.042Z,100402.34
2023-02-13T16:59:42.193Z,100405.44
2023-02-13T17:02:19.095Z,100403.41
2023-02-13T17:05:14.852Z,100403.03
2023-02-13T17:07:48.210Z,100396.47
2023-02-13T17:10:31.193Z,100400.28
2023-02-13T17:13:19.219Z,100401.69
2023-02-13T17:15:47.581Z,100398.81
2023-02-13T17:18:16.126Z,100402.56
2023-02-13T17:20:44.955Z,100400.84
2023-02-13T17:23:21.212Z,100401.41
2023-02-13T17:25:49.571Z,100404.22
2023-02-13T17:28:22.706Z,100405.03
2023-02-13T17:30:51.397Z,100405.13
2023-02-13T17:33:22.347Z,100407.91
2023-02-13T17:35:49.060Z,100412.09
2023-02-13T17:38:15.842Z,100424.28
2023-02-13T17:40:46.929Z,100412.00
2023-02-13T17:43:16.187Z,100418.41
2023-02-13T17:45:43.767Z,100427.47
2023-02-13T17:48:11.421Z,100428.00
2023-02-13T17:50:38.484Z,100437.69
2023-02-13T17:53:19.996Z,100440.19
2023-02-13T17:55:46.884Z,100438.03
2023-02-13T17:58:13.284Z,100435.03
2023-02-13T18:00:39.760Z,100439.56
2023-02-13T18:03:06.359Z,100430.94
2023-02-13T18:05:33.202Z,100425.78
2023-02-13T18:08:03.910Z,100437.59
2023-02-13T18:10:33.246Z,100424.66
2023-02-13T18:13:04.372Z,100434.81
2023-02-13T18:15:55.391Z,100437.97
2023-02-13T18:18:21.920Z,100436.09
2023-02-13T18:20:59.108Z,100433.81
2023-02-13T18:23:28.074Z,100441.63
2023-02-13T18:25:54.828Z,100446.22
2023-02-13T18:28:21.485Z,100443.75
2023-02-13T18:30:48.004Z,100440.19
2023-02-13T18:33:14.456Z,100437.88
2023-02-13T18:35:42.154Z,100439.97
2023-02-13T18:38:13.860Z,100440.91
2023-02-13T18:40:40.366Z,100440.38
2023-02-13T18:43:06.825Z,100451.59
2023-02-13T18:45:33.357Z,100445.47
2023-02-13T18:48:00.028Z,100433.94
2023-02-13T18:50:43.971Z,100429.50
2023-02-13T18:53:10.977Z,100437.25
2023-02-13T18:55:38.055Z,100435.31
2023-02-13T18:58:04.797Z,100429.44
2023-02-13T19:00:31.220Z,100423.72
2023-02-13T19:02:59.006Z,100424.78
2023-02-13T19:05:28.369Z,100420.47
2023-02-13T19:07:54.833Z,100419.06
2023-02-13T19:10:21.262Z,100414.41
2023-02-13T19:12:48.340Z,100412.56
2023-02-13T19:15:14.946Z,100415.00
2023-02-13T19:17:41.406Z,100415.88
2023-02-13T19:20:08.585Z,100413.03
2023-02-13T19:22:35.167Z,100423.91
2023-02-13T19:25:01.755Z,100416.59
2023-02-13T19:27:28.607Z,100416.13
2023-02-13T19:29:55.133Z,100419.72
2023-02-13T19:32:23.696Z,100415.94
2023-02-13T19:34:50.156Z,100412.41
2023-02-13T19:37:16.629Z,100412.47
2023-02-13T19:39:43.100Z,100415.75
2023-02-13T19:42:09.593Z,100410.03
2023-02-13T19:44:36.079Z,100414.56
2023-02-13T19:47:02.591Z,100406.56
2023-02-13T19:49:29.102Z,100413.91
2023-02-13T19:52:04.324Z,100405.72
2023-02-13T19:54:30.940Z,100403.63
2023-02-13T19:57:00.448Z,100401.34
2023-02-13T19:59:27.450Z,100396.63
2023-02-13T20:01:54.139Z,100399.13
2023-02-13T20:04:20.716Z,100400.72
2023-02-13T20:06:47.169Z,100393.56
2023-02-13T20:09:13.927Z,100403.38
2023-02-13T20:11:41.440Z,100398.41
2023-02-13T20:14:14.375Z,100400.69
2023-02-13T20:16:42.838Z,100388.28
2023-02-13T20:19:13.973Z,100392.34
2023-02-13T20:21:41.677Z,100394.94
2023-02-13T20:24:08.894Z,100401.16
2023-02-13T20:26:35.551Z,100397.34
2023-02-13T20:29:03.624Z,100399.13
2023-02-13T20:31:36.774Z,100398.31
2023-02-13T20:34:05.716Z,100400.81
2023-02-13T20:36:32.552Z,100398.72
2023-02-13T20:39:01.851Z,100403.53
2023-02-13T20:41:31.240Z,100393.94
2023-02-13T20:43:59.902Z,100397.72
2023-02-13T20:46:28.916Z,100396.63
2023-02-13T20:48:55.395Z,100392.59
2023-02-13T20:51:21.932Z,100398.00
2023-02-13T20:53:48.472Z,100390.41
2023-02-13T20:56:17.767Z,100388.53
2023-02-13T20:58:46.257Z,100387.34
2023-02-13T21:01:20.119Z,100384.75
2023-02-13T21:03:53.559Z,100399.66
2023-02-13T21:06:21.629Z,100392.97
2023-02-13T21:08:48.532Z,100394.97
2023-02-13T21:11:15.485Z,100396.84
2023-02-13T21:13:41.987Z,100397.75
2023-02-13T21:16:15.347Z,100388.25
2023-02-13T21:18:42.665Z,100402.69
2023-02-13T21:21:11.312Z,100402.06
2023-02-13T21:23:38.296Z,100403.00
2023-02-13T21:26:10.561Z,100405.28
2023-02-13T21:28:38.625Z,100397.56
2023-02-13T21:31:07.458Z,100401.81
2023-02-13T21:33:35.931Z,100400.50
2023-02-13T21:36:05.078Z,100404.28
2023-02-13T21:38:31.509Z,100391.47
2023-02-13T21:41:30.536Z,100393.44
2023-02-13T21:43:56.958Z,100393.72
2023-02-13T21:46:26.187Z,100390.97
2023-02-13T21:49:01.924Z,100392.75
2023-02-13T21:51:30.198Z,100392.91
2023-02-13T21:53:57.662Z,100392.16
2023-02-13T21:56:27.325Z,100390.16
2023-02-13T21:58:54.284Z,100404.75
2023-02-13T22:01:26.842Z,100400.44
2023-02-13T22:04:00.798Z,100394.16
2023-02-13T22:06:30.125Z,100398.19
2023-02-13T22:08:59.124Z,100404.63
2023-02-13T22:11:26.150Z,100404.44
2023-02-13T22:14:02.844Z,100410.94
2023-02-13T22:16:37.839Z,100416.50
2023-02-13T22:19:05.632Z,100411.75
2023-02-13T22:21:38.088Z,100419.53
2023-02-13T22:24:04.961Z,100417.91
2023-02-13T22:26:35.709Z,100423.66
2023-02-13T22:29:04.921Z,100414.75
2023-02-13T22:31:32.112Z,100415.44
2023-02-13T22:34:05.713Z,100414.03
2023-02-13T22:36:40.313Z,100410.69
2023-02-13T22:39:08.318Z,100410.38
2023-02-13T22:41:35.051Z,100413.78
2023-02-13T22:44:01.532Z,100415.88
2023-02-13T22:46:32.610Z,100420.66
2023-02-13T22:48:59.666Z,100417.69
2023-02-13T22:51:28.936Z,100422.38
2023-02-13T22:53:56.966Z,100432.16
2023-02-13T22:56:25.051Z,100429.28
2023-02-13T22:58:51.656Z,100427.81
2023-02-13T23:01:22.386Z,100423.25
2023-02-13T23:03:48.949Z,100423.03
2023-02-13T23:06:16.529Z,100424.31
2023-02-13T23:08:43.537Z,100427.63
2023-02-13T23:11:34.215Z,100432.25
2023-02-13T23:14:01.076Z,100416.44
2023-02-13T23:16:28.732Z,100410.63
2023-02-13T23:19:00.253Z,100417.28
2023-02-13T23:21:39.628Z,100408.28
2023-02-13T23:24:06.467Z,100420.28
2023-02-13T23:26:32.907Z,100416.56
2023-02-13T23:28:59.363Z,100415.44
2023-02-13T23:31:25.884Z,100412.63
2023-02-13T23:33:52.374Z,100414.38
2023-02-13T23:36:18.847Z,100416.91
2023-02-13T23:38:46.600Z,100414.53
2023-02-13T23:41:13.071Z,100416.56
2023-02-13T23:43:44.457Z,100415.66
2023-02-13T23:46:12.446Z,100424.72
2023-02-13T23:48:39.107Z,100419.63
2023-02-13T23:51:05.782Z,100411.44
2023-02-13T23:53:47.534Z,100423.84
2023-02-13T23:56:14.405Z,100417.63
2023-02-13T23:58:40.865Z,100428.16
